Tiempo atmosférico en la estación meteorológica de Santa Elena, Jaén (742 m.)



Fecha
DESCASC
Temp. máxima en grados centígrados (hora)
DESCASC
Temp. mínima en grados centígrados (hora)
DESCASC
Temp. media en grados centígrados
DESCASC
Racha de viento máxima en m/sg (hora)
DESCASC
Velocidad máxima media en intervalos de 10 minutos(hora)
DESCASC
Precipitaciones diarias en mm
DESCASC
Precipitaciones de 00:00 a 06:00 en mm
DESCASC
Precipitaciones de 06:00 a 12:00 en mm
DESCASC
Precipitaciones de 12:00 a 18:00 en mm
DESCASC
Precipitaciones de 18:00 a 24:00 en mm
DESCASC
17-02-2019 16.2 (16:30) 3.9 (00:00) 10.1 5 (16:20) 2.5 (06:50) 0 0 0 0 0
16-02-2019 17.7 (16:30) 4.8 (00:00) 11.3 5.83 (11:20) 3.89 (11:20) 0 0 0 0 0
15-02-2019 15.3 (17:10) 3.7 (00:00) 9.5 8.61 (17:50) 5 (16:00) 0 0 0 0 0
14-02-2019 15 (17:30) 3.9 (00:00) 9.5 4.72 (14:20) 2.22 (13:50) 0 0 0 0 0
13-02-2019 15.5 (16:50) 3.6 (00:00) 9.5 5 (15:30) 2.22 (15:10) 0 0 0 0 0
12-02-2019 14.3 (15:40) 2.9 (00:00) 8.6 6.39 (05:00) 3.33 (05:00) 0 0 0 0 0
11-02-2019 12.3 (14:40) 7.6 (00:00) 10 6.94 (23:59) 3.33 (23:59) 0.2 0.2 0 0 0
10-02-2019 9.8 (14:20) 3.5 (00:00) 6.7 5.28 (12:30) 2.78 (12:40) 0 0 0 0 0
09-02-2019 14.4 (16:50) 3.9 (00:00) 9.1 5 (15:20) 2.5 (15:50) 0 0 0 0 0
08-02-2019 15.3 (16:40) 4.8 (00:00) 10.1 7.22 (16:10) 3.61 (16:10) 0 0 0 0 0
07-02-2019 14.9 (16:50) 5.1 (00:00) 10 4.72 (17:20) 2.22 (16:00) 0 0 0 0 0
06-02-2019 16.4 (16:50) 6.7 (00:00) 11.5 6.67 (06:40) 3.61 (06:50) 0 0 0 0 0
05-02-2019 13.8 (16:00) 3 (00:00) 8.4 8.33 (10:00) 4.72 (10:00) 0 0 0 0 0
04-02-2019 11.5 (16:00) -1.9 (-00:0) 4.8 6.39 (09:30) 3.33 (16:50) 0 0 0 0 0
03-02-2019 7 (15:30) -0.8 (-00:0) 3.1 12.5 (16:10) 6.11 (16:00) 0 0 0 0 0
02-02-2019 7.4 (15:50) 2.5 (00:00) 5 13.61 (01:50) 7.22 (16:20) 0 0 0 0 0
01-02-2019 9.7 (06:10) 3 (00:00) 6.3 17.22 (02:20) 7.78 (02:20) 42.4 30.8 8.4 2.4 0.8
31-01-2019 10 (14:30) 6.6 (00:00) 8.3 16.11 (23:10) 7.5 (23:50) 17.6 3.6 2 3.2 8.8
30-01-2019 9.8 (15:20) 5 (00:00) 7.4 10.28 (10:00) 6.11 (11:20) 3.8 0 0.2 0 3.6
29-01-2019 8.9 (13:50) 4.5 (00:00) 6.7 9.72 (13:30) 4.72 (13:30) 0.6 0 0 0 0.6
28-01-2019 9.8 (16:20) 0.6 (00:00) 5.2 9.17 (17:20) 5.28 (22:40) 0 0 0 0 0
27-01-2019 10.9 (16:10) 3.3 (00:00) 7.1 10.28 (14:20) 5.83 (21:10) 0 0 0 0 0
26-01-2019 14.9 (16:20) 5 (00:00) 9.9 9.44 (08:50) 4.17 (04:20) 0 0 0 0 0
25-01-2019 13.7 (16:40) 6.2 (00:00) 9.9 10.28 (16:30) 5.56 (08:50) 0 0 0 0 0
24-01-2019 10.3 (16:50) 5 (00:00) 7.7 11.39 (01:30) 5 (01:30) 0 0 0 0 0
23-01-2019 10.2 (15:10) 4.5 (00:00) 7.3 13.33 (15:30) 6.39 (22:20) 0 0 0 0 0
22-01-2019 6.7 (16:50) -0.5 (-00:0) 3.1 10.28 (23:50) 5 (23:59) 0 0 0 0 0
21-01-2019 8 (15:40) 1.1 (00:00) 4.6 11.94 (16:10) 6.67 (16:20) 0 0 0 0 0
20-01-2019 8.6 (17:10) 4.3 (00:00) 6.5 14.44 (15:30) 7.22 (15:40) 6 3.6 2.4 0 0
19-01-2019 8.4 (14:00) 1.3 (00:00) 4.8 7.22 (23:00) 3.61 (23:20) 2.2 0 0 0 2.2

Gráficas

Temp. máximas Temp. mínimas Temp. medias Precipitaciones Rachas de viento máximas Velocidades máximas media en intervalos de 10 minutos

Datos horarios

Fecha y hora oficial Temperatura (ºC) Velocidad del viento (km/h) Dirección del viento Racha (km/h) Dirección de racha Precipitación (mm) Presión (hPa) Tendencia (hPa) Humedad (%)
2019-02-17 23:00:00 9.4 4 Este 13 Este 0 931.2 0.6 34
2019-02-17 22:00:00 9.8 0 Calma 4 Norte 0 931 0.6 32
2019-02-17 21:00:00 10.8 3 Noroeste 6 Noroeste 0 930.8 0.4 27
2019-02-17 20:00:00 12 4 Oeste 9 Oeste 0 930.6 -0.2 25
2019-02-17 19:00:00 12.6 5 Oeste 9 Sudoeste 0 930.4 -0.8 27
2019-02-17 18:00:00 15.5 6 Sudoeste 16 Sur 0 930.4 -1.4 21
2019-02-17 17:00:00 16.1 6 Sudoeste 18 Sur 0 930.8 -1.7 23
2019-02-17 16:00:00 15.9 5 Sur 17 Sur 0 931.2 -2.2 23
2019-02-17 15:00:00 15.3 7 Sur 16 Sur 0 931.8 -2.1 25
2019-02-17 14:00:00 14.1 3 Sur 14 Este 0 932.5 -1.4 26
2019-02-17 13:00:00 13.2 6 Sudeste 17 Sur 0 933.4 -0.4 29
2019-02-17 12:00:00 11.7 4 Sudeste 11 Sudeste 0 933.9 0.2 30
2019-02-17 11:00:00 9.1 4 Nordeste 7 Este 0 933.9 0.7 41
2019-02-17 10:00:00 5.7 0 Calma 7 Norte 0 933.8 0.6 51
2019-02-17 09:00:00 4.2 3 Noroeste 7 Norte 0 933.7 0.6 49
2019-02-17 08:00:00 4.4 4 Norte 12 Este 0 933.2 -0.1 46
2019-02-17 07:00:00 5 5 Nordeste 15 Este 0 933.2 -0.2 42
2019-02-17 06:00:00 4.7 5 Norte 7 Norte 0 933.1 -0.7 56
2019-02-17 05:00:00 5.4 4 Norte 7 Norte 0 933.3 -1 54
2019-02-17 04:00:00 5.5 4 Norte 6 Noroeste 0 933.4 -1 52
2019-02-17 03:00:00 5.8 4 Noroeste 7 Sudeste 0 933.8 -0.6 51
2019-02-17 02:00:00 6.5 3 Sudeste 8 Sur 0 934.3 0 48
2019-02-17 01:00:00 7.2 3 Sudeste 8 Sudeste 0 934.4 0.3 46
2019-02-17 00:00:00 8 6 Sudeste 13 Este 0 934.4 0.6 43
2019-02-16 23:00:00 8.7 8 Este 14 Este 0 934.3 1.1 43
2019-02-16 22:00:00 9.6 7 Este 10 Este 0 934.1 1.5 44
2019-02-16 21:00:00 10.4 3 Norte 9 Sur 0 933.8 1.5 41
2019-02-16 20:00:00 11.9 6 Sur 12 Sudoeste 0 933.2 1 37
2019-02-16 19:00:00 13.1 3 Sudoeste 13 Sur 0 932.6 0.1 39
2019-02-16 18:00:00 15.8 9 Sur 15 Sur 0 932.3 -0.8 35
2019-02-16 17:00:00 17.3 4 Sudeste 13 Sudeste 0 932.2 -1.9 27
2019-02-16 16:00:00 17.5 6 Sudeste 17 Este 0 932.5 -2.4 25
2019-02-16 15:00:00 16.4 5 Norte 17 Norte 0 933.1 -2.2 32
2019-02-16 14:00:00 15 9 Nordeste 21 Norte 0 934.1 -1.2 37
2019-02-16 13:00:00 13.4 10 Nordeste 18 Nordeste 0 934.9 0 46
2019-02-16 12:00:00 11 11 Nordeste 21 Norte 0 935.3 0.8 54
2019-02-16 11:00:00 8.1 12 Nordeste 18 Norte 0 935.3 1.2 62
2019-02-16 10:00:00 5.7 6 Nordeste 18 Nordeste 0 934.9 1.2 72
2019-02-16 09:00:00 5 7 Nordeste 10 Nordeste 0 934.5 0.9 70
2019-02-16 08:00:00 5.1 6 Nordeste 7 Nordeste 0 934.1 0.8 68
2019-02-16 07:00:00 5.5 4 Norte 6 Norte 0 933.7 0 65
2019-02-16 06:00:00 5.7 4 Nordeste 9 Nordeste 0 933.6 -0.2 67
2019-02-16 05:00:00 6.4 3 Nordeste 6 Norte 0 933.3 -0.7 65
2019-02-16 04:00:00 7.1 4 Norte 10 Nordeste 0 933.7 -0.6 63
2019-02-16 03:00:00 7.4 4 Norte 10 Nordeste 0 933.8 -0.5 63
2019-02-16 02:00:00 7.5 3 Nordeste 12 Nordeste 0 934 -0.5 68
2019-02-16 01:00:00 7.8 7 Nordeste 10 Nordeste 0 934.3 0.1 67
2019-02-16 00:00:00 8.4 5 Nordeste 17 Nordeste 0 934.3 0.2 66
2019-02-15 23:00:00 9.6 8 Nordeste 17 Nordeste 0 934.5 0.2 61
2019-02-15 22:00:00 10.3 10 Nordeste 22 Nordeste 0 934.2 0.1 58
2019-02-15 21:00:00 10.9 10 Nordeste 24 Norte 0 934.1 0.3 54
2019-02-15 20:00:00 12 15 Norte 29 Norte 0 934.3 0.2 49
2019-02-15 19:00:00 12.7 14 Norte 29 Norte 0 934.1 -0.2 46
2019-02-15 18:00:00 14.5 15 Norte 31 Norte 0 933.8 -1 43
2019-02-15 17:00:00 15 14 Norte 27 Nordeste 0 934.1 -1.4 47
2019-02-15 16:00:00 14.7 18 Norte 30 Nordeste 0 934.3 -2.1 44
2019-02-15 15:00:00 14.5 15 Norte 27 Norte 0 934.8 -2.3 44
2019-02-15 14:00:00 13.6 15 Norte 26 Nordeste 0 935.5 -1.6 45
2019-02-15 13:00:00 12.6 14 Nordeste 26 Nordeste 0 936.4 -0.9 49
2019-02-15 12:00:00 11 10 Nordeste 23 Nordeste 0 937.1 -0.1 56
2019-02-15 11:00:00 9.1 8 Nordeste 21 Nordeste 0 937.1 0.3 62
2019-02-15 10:00:00 5.9 5 Nordeste 18 Nordeste 0 937.3 0.4 73
2019-02-15 09:00:00 4.9 6 Nordeste 14 Nordeste 0 937.2 0.2 78
2019-02-15 08:00:00 4.1 4 Nordeste 10 Nordeste 0 936.8 -0.3 77
2019-02-15 07:00:00 4.5 4 Nordeste 6 Norte 0 936.9 -0.4 76
2019-02-15 06:00:00 5.2 3 Norte 5 Norte 0 937 -0.6 73
2019-02-15 05:00:00 5.9 3 Norte 5 Norte 0 937.1 -0.7 71
2019-02-15 04:00:00 6.3 4 Norte 6 Norte 0 937.3 -0.7 69
2019-02-15 03:00:00 6.7 5 Norte 12 Este 0 937.6 -0.4 66
2019-02-15 02:00:00 7.4 5 Este 13 Este 0 937.8 -0.2 64
2019-02-15 01:00:00 7.9 5 Este 8 Este 0 938 0.1 62
2019-02-15 00:00:00 8.5 0 Calma 6 Nordeste 0 938 0.3 57
2019-02-14 23:00:00 9.4 4 Noroeste 6 Noroeste 0 938 0.2 51
2019-02-14 22:00:00 9.4 3 Nordeste 10 Este 0 937.9 0.2 48
2019-02-14 21:00:00 10.2 0 Calma 6 Norte 0 937.7 0.1 40
2019-02-14 20:00:00 11.2 4 Noroeste 6 Noroeste 0 937.8 0.2 36
2019-02-14 19:00:00 12.3 0 Calma 5 Sudeste 0 937.7 -0.3 39
2019-02-14 18:00:00 14.6 3 Sur 10 Sudeste 0 937.6 -0.6 35
2019-02-14 17:00:00 14.9 5 Sudeste 13 Este 0 937.6 -1.2 31
2019-02-14 16:00:00 14.5 5 Sudeste 14 Sudeste 0 938 -1.4 33
2019-02-14 15:00:00 13.7 5 Sur 17 Sur 0 938.2 -1.8 41
2019-02-14 14:00:00 12.8 6 Sudeste 14 Sudeste 0 938.8 -1.1 44
2019-02-14 13:00:00 11.5 5 Sudeste 13 Sudeste 0 939.4 -0.4 52
2019-02-14 12:00:00 9.8 4 Sudeste 14 Sur 0 940 0.6 60
2019-02-14 11:00:00 7.8 4 Este 14 Este 0 939.9 0.9 63
2019-02-14 10:00:00 5.8 4 Nordeste 15 Este 0 939.8 0.9 72
2019-02-14 09:00:00 4.3 3 Este 16 Sudeste 0 939.4 0.5 75
2019-02-14 08:00:00 4.2 4 Este 12 Este 0 939 0.4 74
2019-02-14 07:00:00 4.2 3 Nordeste 8 Nordeste 0 938.9 0.2 72
2019-02-14 06:00:00 4.8 3 Nordeste 11 Este 0 938.9 0.2 70
2019-02-14 05:00:00 5.1 3 Nordeste 10 Este 0 938.6 -0.2 66
2019-02-14 04:00:00 6 5 Este 10 Este 0 938.7 -0.3 61
2019-02-14 03:00:00 6.6 3 Norte 5 Norte 0 938.7 -0.2 61
2019-02-14 02:00:00 6.9 3 Norte 6 Nordeste 0 938.8 0 59
2019-02-14 01:00:00 7.5 5 Norte 9 Nordeste 0 939 0.5 58
2019-02-14 00:00:00 8.3 5 Sudeste 11 Este 0 938.9 0.7 55
2019-02-13 23:00:00 8.8 2 Sur 9 Sudeste 0 938.8 0.7 49
2019-02-13 22:00:00 9.9 4 Sudeste 8 Nordeste 0 938.5 0.7 54
2019-02-13 21:00:00 10.5 4 Nordeste 8 Nordeste 0 938.2 0.7 58
2019-02-13 20:00:00 11.3 4 Norte 5 Norte 0 938.1 0.5 53
2019-02-13 19:00:00 12.6 4 Nordeste 11 Sur 0 937.8 0.2 53
2019-02-13 18:00:00 14.8 4 Sur 13 Sur 0 937.5 -0.3 43
2019-02-13 17:00:00 15.3 4 Sudeste 14 Sudeste 0 937.6 -0.7 52
2019-02-13 16:00:00 15.3 6 Sur 18 Sur 0 937.6 -1.5 54
2019-02-13 15:00:00 15 7 Sudeste 15 Sudeste 0 937.8 -1.6 56
2019-02-13 14:00:00 13.8 5 Sudeste 14 Sur 0 938.3 -1.2 57
2019-02-13 13:00:00 12.4 4 Sudeste 12 Este 0 939.1 -0.2 63
2019-02-13 12:00:00 10.2 5 Norte 9 Nordeste 0 939.4 0.1 68
2019-02-13 11:00:00 7.8 4 Sudeste 10 Este 0 939.5 0.5 77
2019-02-13 10:00:00 5.4 3 Norte 5 Norte 0 939.3 0.6 84
2019-02-13 09:00:00 3.9 3 Norte 5 Nordeste 0 939.3 0.7 84
2019-02-13 08:00:00 3.9 2 Norte 8 Este 0 939 0.1 82
2019-02-13 07:00:00 4.5 3 Norte 5 Nordeste 0 938.7 -0.4 80
2019-02-13 06:00:00 4.8 4 Norte 6 Noroeste 0 938.6 -0.9 79
2019-02-13 05:00:00 5.1 3 Noroeste 6 Este 0 938.9 -0.8 78
2019-02-13 04:00:00 5.5 3 Este 7 Este 0 939.1 -0.8 76
2019-02-13 03:00:00 6 5 Este 8 Este 0 939.5 -0.5 75
2019-02-13 02:00:00 6.5 3 Norte 8 Este 0 939.7 -0.4 73
2019-02-13 01:00:00 7 5 Este 10 Sudeste 0 939.9 0 70
2019-02-13 00:00:00 7.6 5 Este 9 Este 0 940 0.3 69
2019-02-12 23:00:00 8.3 3 Noroeste 5 Noroeste 0 940.1 0.6 68
2019-02-12 22:00:00 8.8 3 Norte 10 Sudeste 0 939.9 0.8 66
2019-02-12 21:00:00 9.5 4 Noroeste 5 Norte 0 939.7 0.8 63
2019-02-12 20:00:00 10.2 4 Nordeste 5 Norte 0 939.5 0.5 62
2019-02-12 19:00:00 11.4 4 Sudeste 8 Sur 0 939.1 0.2 59
2019-02-12 18:00:00 13.7 3 Sudeste 12 Este 0 938.9 -0.2 54
2019-02-12 17:00:00 13.7 4 Sur 12 Sudeste 0 939 -0.3 53
2019-02-12 16:00:00 14.2 3 Sudeste 17 Este 0 938.9 -1.1 51
2019-02-12 15:00:00 13.7 3 Sur 19 Sur 0 939.1 -1.3 53
2019-02-12 14:00:00 13.1 7 Sur 19 Sudeste 0 939.3 -1 59
2019-02-12 13:00:00 11.9 6 Sudeste 18 Sur 0 940 0.3 63
2019-02-12 12:00:00 10.3 7 Sudeste 20 Este 0 940.4 1.1 69
2019-02-12 11:00:00 8.7 7 Sudeste 18 Este 0 940.3 1.6 75
2019-02-12 10:00:00 5.3 4 Nordeste 15 Nordeste 0 939.7 1.5 74
2019-02-12 09:00:00 3.3 7 Nordeste -- -- 0 939.3 1.3 74
2019-02-12 08:00:00 3.1 8 Nordeste -- -- 0 938.7 0.9 70
2019-02-12 07:00:00 3.4 9 Nordeste 19 Nordeste 0 938.2 0.3 66
2019-02-12 06:00:00 4.4 10 Nordeste 22 Nordeste 0 938 -0.2 61
2019-02-12 05:00:00 5.6 12 Nordeste 23 Nordeste 0 937.8 -0.5 57
2019-02-12 04:00:00 6.1 9 Nordeste 15 Nordeste 0 937.9 -0.6 55
2019-02-12 03:00:00 6.5 10 Nordeste 17 Norte 0 938.2 -0.2 54
2019-02-12 02:00:00 7.4 10 Norte 23 Norte 0 938.3 -0.1 50
2019-02-12 01:00:00 7.8 11 Nordeste 21 Nordeste 0 938.5 0.5 49
2019-02-12 00:00:00 8.3 12 Nordeste 25 Nordeste 0 938.4 1 50
2019-02-11 23:00:00 8.2 10 Norte 18 Norte 0 938.4 1 60
2019-02-11 22:00:00 8.1 6 Norte 17 Nordeste 0 938 1.1 67
2019-02-11 21:00:00 8.4 7 Nordeste 16 Nordeste 0 937.4 0.8 70
2019-02-11 20:00:00 8.9 4 Norte 6 Norte 0 937.4 0.6 74
2019-02-11 19:00:00 10.3 4 Norte 8 Norte 0 936.9 0.1 72
2019-02-11 18:00:00 12 2 Noroeste 8 Norte 0 936.6 -0.3 67
2019-02-11 17:00:00 12.1 3 Norte 11 Norte 0 936.8 -0.5 68
2019-02-11 16:00:00 11.7 2 Este 7 Sudoeste 0 936.8 -0.8 71
2019-02-11 15:00:00 12.1 4 Sur 12 Sur 0 936.9 -1 70
2019-02-11 14:00:00 11.8 4 Sur 11 Sur 0 937.3 -0.5 72
2019-02-11 13:00:00 11.4 4 Sudeste 12 Sudeste 0 937.6 0 78
2019-02-11 12:00:00 10.6 4 Sudoeste 9 Sudoeste 0 937.9 0.8 87
2019-02-11 11:00:00 9.1 3 Sur 10 Sudoeste 0 937.8 1.2 90
2019-02-11 10:00:00 8.5 5 Oeste 9 Oeste 0 937.6 1.4 90
2019-02-11 09:00:00 7.9 4 Sudoeste 9 Sudoeste 0 937.1 0.9 90
2019-02-11 08:00:00 7.7 4 Sur 10 Sudoeste 0 936.6 0.4 89
2019-02-11 07:00:00 7.7 6 Sudoeste 17 Sudoeste 0 936.2 -0.4 89
2019-02-11 06:00:00 7.7 5 Oeste 14 Sudoeste 0 936.2 -0.2 88
2019-02-11 05:00:00 7.7 7 Oeste 15 Oeste 0.2 936.2 -0.6 88
2019-02-11 04:00:00 7.7 5 Noroeste 13 Sudoeste 0 936.6 -0.2 87
2019-02-11 03:00:00 7.8 8 Oeste 14 Oeste 0 936.4 -0.6 85
2019-02-11 02:00:00 7.9 7 Oeste 14 Sudoeste 0 936.8 -0.2 83
2019-02-11 01:00:00 7.8 4 Norte 6 Norte 0 936.8 -0.2 82
2019-02-11 00:00:00 8.1 4 Noroeste 10 Sudoeste 0 937 0.2 79
2019-02-10 23:00:00 8 5 Sudoeste 9 Sudoeste 0 937 0.1 79
2019-02-10 22:00:00 8 5 Oeste 12 Sudoeste 0 937 0.5 80
2019-02-10 21:00:00 7.9 5 Sur 10 Oeste 0 936.8 0.5 79
2019-02-10 20:00:00 8.1 6 Oeste 10 Sudoeste 0 936.9 1.1 80
2019-02-10 19:00:00 8.2 6 Sudoeste 14 Sudoeste 0 936.5 0.5 78
2019-02-10 18:00:00 8.5 8 Sudoeste 15 Sudoeste 0 936.3 0.2 78
2019-02-10 17:00:00 8.9 9 Sur 18 Sur 0 935.8 -0.5 79
2019-02-10 16:00:00 8.9 7 Sur 18 Sur 0 936 -0.7 79
2019-02-10 15:00:00 9.1 9 Sur 17 Sur 0 936.1 -0.6 77
2019-02-10 14:00:00 9.1 8 Sur 18 Sur 0 936.3 -0.3 80
2019-02-10 13:00:00 7.7 9 Sudoeste 19 Sudoeste 0 936.7 0.4 83
2019-02-10 12:00:00 7.6 7 Sur 14 Sur 0 936.7 1.1 85
2019-02-10 11:00:00 7.3 5 Sur 10 Sudoeste 0 936.6 1.7 88
2019-02-10 10:00:00 5.6 3 Norte 5 Norte 0 936.3 2.2 88
2019-02-10 09:00:00 4.2 3 Norte 9 Sur 0 935.6 2.1 87
2019-02-10 08:00:00 3.6 2 Oeste 8 Sur 0 934.9 1.6 86
2019-02-10 07:00:00 3.8 3 Norte 11 Sudoeste 0 934.1 0.6 85
2019-02-10 06:00:00 4.5 6 Sur 11 Sur 0 933.5 -0.1 84
2019-02-10 05:00:00 5.1 5 Sur 14 Sudoeste 0 933.3 -0.6 82
2019-02-10 04:00:00 5.4 5 Oeste 13 Sudoeste 0 933.5 -0.6 80
2019-02-10 03:00:00 6 7 Sudoeste 14 Sudoeste 0 933.6 -0.7 77
2019-02-10 02:00:00 6.1 9 Sudoeste 14 Sudoeste 0 933.9 -0.3 76
2019-02-10 01:00:00 7.1 8 Oeste 15 Sudoeste 0 934.1 0.3 67
2019-02-10 00:00:00 7.3 9 Sudoeste 14 Oeste 0 934.3 0.7 63
2019-02-09 23:00:00 7.2 8 Sudoeste 15 Sudoeste 0 934.2 0.9 57
2019-02-09 22:00:00 7.9 7 Sur 15 Sudoeste 0 933.8 0.8 55
2019-02-09 21:00:00 8.6 6 Sudoeste 14 Sudoeste 0 933.6 1 56
2019-02-09 20:00:00 9.1 6 Sudoeste 12 Sudoeste 0 933.3 0.5 57
2019-02-09 19:00:00 10.5 6 Sudoeste 12 Sudoeste 0 933 0 52
2019-02-09 18:00:00 12.6 5 Sur 14 Sudoeste 0 932.6 -0.6 52
2019-02-09 17:00:00 14.4 8 Sur 17 Sur 0 932.8 -0.9 39
2019-02-09 16:00:00 14.2 8 Sur 18 Sur 0 933 -1.4 44
2019-02-09 15:00:00 13.6 7 Sur 16 Sur 0 933.2 -1.6 47
2019-02-09 14:00:00 12.9 6 Sur 15 Sudoeste 0 933.7 -0.8 53
2019-02-09 13:00:00 12.1 6 Sur 15 Sur 0 934.4 0.1 53
2019-02-09 12:00:00 10.6 6 Sur 14 Sur 0 934.8 0.7 63
2019-02-09 11:00:00 8.4 3 Oeste 7 Sudoeste 0 934.5 1.1 72
2019-02-09 10:00:00 6 0 Calma 4 Norte 0 934.3 0.9 72
2019-02-09 09:00:00 4.8 2 Noroeste 11 Sudeste 0 934.1 0.9 71
2019-02-09 08:00:00 4 6 Este 10 Este 0 933.4 0.3 74
2019-02-09 07:00:00 4.6 5 Nordeste 9 Nordeste 0 933.4 0.1 69
2019-02-09 06:00:00 4.8 4 Nordeste 7 Noroeste 0 933.2 -0.4 68
2019-02-09 05:00:00 5.3 4 Noroeste 7 Noroeste 0 933.1 -0.7 65
2019-02-09 04:00:00 5.3 2 Norte 8 Sudeste 0 933.3 -0.7 60
2019-02-09 03:00:00 5.9 4 Norte 9 Sudeste 0 933.6 -0.5 58
2019-02-09 02:00:00 6.2 3 Noroeste 5 Noroeste 0 933.8 -0.2 55
2019-02-09 01:00:00 6.6 2 Nordeste 6 Sudeste 0 934 0.4 55
2019-02-09 00:00:00 7 3 Noroeste 5 Nordeste 0 934.1 0.8 50
2019-02-08 23:00:00 7.7 3 Norte 5 Nordeste 0 934 1.2 52
2019-02-08 22:00:00 8.1 3 Norte 9 Sudoeste 0 933.6 1 50
2019-02-08 21:00:00 9.4 5 Oeste 12 Sudoeste 0 933.3 0.8 48
2019-02-08 20:00:00 10.6 6 Sudoeste 13 Oeste 0 932.8 0.2 44
2019-02-08 19:00:00 12.3 4 Oeste 15 Sudoeste 0 932.6 -0.1 44
2019-02-08 18:00:00 14.6 9 Sudoeste 22 Sudoeste 0 932.5 -0.5 37
2019-02-08 17:00:00 15.2 11 Oeste 26 Sudoeste 0 932.6 -0.8 33
2019-02-08 16:00:00 15.2 9 Sudoeste 24 Oeste 0 932.7 -1.4 41
2019-02-08 15:00:00 14.4 10 Sudoeste 23 Sudoeste 0 933 -1.3 39
2019-02-08 14:00:00 14.1 9 Sur 17 Sudoeste 0 933.4 -1 43
2019-02-08 13:00:00 12.7 6 Sur 19 Sur 0 934.1 -0.2 49
2019-02-08 12:00:00 11.4 8 Sur 14 Sur 0 934.3 0.3 51
2019-02-08 11:00:00 9.7 5 Sudeste 10 Sudeste 0 934.4 1 59
2019-02-08 10:00:00 6.4 3 Norte 6 Nordeste 0 934.3 1.2 67
2019-02-08 09:00:00 5.1 4 Norte 7 Nordeste 0 934 1 69
2019-02-08 08:00:00 5.3 4 Norte 7 Norte 0 933.4 0.1 66
2019-02-08 07:00:00 5.9 4 Noroeste 6 Noroeste 0 933.1 -0.4 61
2019-02-08 06:00:00 6 3 Noroeste 9 Norte 0 933 -1 59
2019-02-08 05:00:00 6 3 Oeste 6 Nordeste 0 933.3 -1 57
2019-02-08 04:00:00 6.5 2 Noroeste 8 Nordeste 0 933.5 -0.8 55
2019-02-08 03:00:00 6.5 6 Nordeste 15 Nordeste 0 934 -0.4 55
2019-02-08 02:00:00 7.5 6 Nordeste 17 Nordeste 0 934.3 0.2 53
2019-02-08 01:00:00 7.5 4 Norte 8 Norte 0 934.3 0.2 60
2019-02-08 00:00:00 7.9 5 Norte 8 Noroeste 0 934.4 0.6 54
2019-02-07 23:00:00 8.1 4 Norte 6 Sur 0 934.1 0.3 58
2019-02-07 22:00:00 8.6 3 Norte 8 Norte 0 934.1 0.7 59
2019-02-07 21:00:00 9.2 3 Norte 11 Sur 0 933.8 0.7 65
2019-02-07 20:00:00 10.1 2 Norte 10 Sudoeste 0 933.8 0.7 61
2019-02-07 19:00:00 12 5 Sur 11 Sur 0 933.4 0.2 57
2019-02-07 18:00:00 14.3 5 Sur 17 Sur 0 933.1 -0.4 49
2019-02-07 17:00:00 14.9 6 Sur 15 Sur 0 933.1 -0.9 50
2019-02-07 16:00:00 14.7 8 Sur 17 Sur 0 933.2 -1.4 51
2019-02-07 15:00:00 13.8 4 Sur 14 Sudoeste 0 933.5 -1.5 52
2019-02-07 14:00:00 13.5 6 Sur 14 Sudeste 0 934 -0.9 53
2019-02-07 13:00:00 12.5 5 Sudeste 13 Sudeste 0 934.6 -0.3 53
2019-02-07 12:00:00 11.1 5 Sudeste 11 Sur 0 935 0.5 59
2019-02-07 11:00:00 9.6 5 Sudeste 12 Sur 0 934.9 0.8 64
2019-02-07 10:00:00 7.3 3 Nordeste 6 Norte 0 934.9 1.1 71
2019-02-07 09:00:00 5.3 4 Noroeste 6 Norte 0 934.5 0.6 73
2019-02-07 08:00:00 5.5 3 Norte 7 Norte 0 934.1 0.2 72
2019-02-07 07:00:00 5.4 3 Norte 6 Sudeste 0 933.8 -0.6 74
2019-02-07 06:00:00 5.9 6 Sudeste 8 Sudeste 0 933.9 -0.7 71
2019-02-07 05:00:00 6.5 3 Norte 5 Norte 0 933.9 -0.6 71
2019-02-07 04:00:00 6.9 2 Noroeste 4 Norte 0 934.4 -0.5 68
2019-02-07 03:00:00 7.5 3 Noroeste 5 Norte 0 934.6 -0.1 68
2019-02-07 02:00:00 8 3 Norte 6 Norte 0 934.5 -0.3 63
2019-02-07 01:00:00 8.2 2 Oeste 6 Norte 0 934.9 0 64
2019-02-07 00:00:00 8.8 3 Noroeste 4 Noroeste 0 934.7 0 61
2019-02-06 23:00:00 9 4 Nordeste 5 Nordeste 0 934.8 0.2 58
2019-02-06 22:00:00 9.9 3 Nordeste 6 Nordeste 0 934.9 0.3 54
2019-02-06 21:00:00 10.7 3 Noroeste 10 Sudoeste 0 934.7 0.5 50
2019-02-06 20:00:00 11.2 8 Sudoeste 10 Sudoeste 0 934.6 0.3 43
2019-02-06 19:00:00 12.7 6 Sur 13 Sudoeste 0 934.6 0.1 45
2019-02-06 18:00:00 15.3 7 Sur 19 Sudoeste 0 934.2 -0.7 38
2019-02-06 17:00:00 16.3 10 Sudoeste 19 Sudoeste 0 934.3 -1.2 42
2019-02-06 16:00:00 16.1 7 Sudoeste 18 Sudoeste 0 934.5 -1.7 40
2019-02-06 15:00:00 15.5 9 Sudoeste 17 Sudoeste 0 934.9 -2 37
2019-02-06 14:00:00 15 8 Sur 18 Sur 0 935.5 -1.6 39
2019-02-06 13:00:00 13.8 7 Sur 14 Sur 0 936.2 -1 45
2019-02-06 12:00:00 12.2 3 Sur 9 Sudeste 0 936.9 0.1 51
2019-02-06 11:00:00 9.9 4 Norte 12 Norte 0 937.1 0.5 57
2019-02-06 10:00:00 7.8 7 Nordeste 15 Nordeste 0 937.2 0.9 62
2019-02-06 09:00:00 7 9 Nordeste 19 Nordeste 0 936.8 0.4 62
2019-02-06 08:00:00 6.9 10 Nordeste 22 Nordeste 0 936.6 0.3 61
2019-02-06 07:00:00 7.2 13 Nordeste 24 Nordeste 0 936.3 -0.5 59
2019-02-06 06:00:00 7.3 10 Nordeste 22 Nordeste 0 936.4 -0.8 59
2019-02-06 05:00:00 7.7 10 Nordeste 21 Nordeste 0 936.3 -1.3 58
2019-02-06 04:00:00 7.6 10 Nordeste 19 Nordeste 0 936.8 -0.9 58
2019-02-06 03:00:00 7.4 8 Nordeste 14 Nordeste 0 937.2 -0.7 60
2019-02-06 02:00:00 7.4 7 Nordeste 13 Nordeste 0 937.6 -0.4 60
2019-02-06 01:00:00 7.8 6 Nordeste 13 Nordeste 0 937.7 -0.2 58
2019-02-06 00:00:00 8.2 7 Nordeste 12 Nordeste 0 937.9 0.1 57
2019-02-05 23:00:00 8.5 7 Norte 16 Nordeste 0 938 0.4 56
2019-02-05 22:00:00 8.6 8 Nordeste 14 Norte 0 937.9 0.3 56
2019-02-05 21:00:00 9.1 7 Norte 11 Nordeste 0 937.8 0.5 54
2019-02-05 20:00:00 9.3 7 Norte 19 Norte 0 937.6 0.2 54
2019-02-05 19:00:00 10.5 8 Norte 17 Norte 0 937.6 0.1 51
2019-02-05 18:00:00 12.6 10 Norte 22 Nordeste 0 937.3 -0.5 45
2019-02-05 17:00:00 13.6 12 Norte 21 Norte 0 937.4 -0.9 41
2019-02-05 16:00:00 13.8 10 Nordeste 23 Norte 0 937.5 -1.5 40
2019-02-05 15:00:00 13.4 13 Norte 25 Nordeste 0 937.8 -1.7 41
2019-02-05 14:00:00 12.8 9 Nordeste 21 Nordeste 0 938.3 -1 42
2019-02-05 13:00:00 11.5 14 Norte 25 Norte 0 939 0.2 43
2019-02-05 12:00:00 9.9 11 Nordeste 27 Nordeste 0 939.5 1.1 42
2019-02-05 11:00:00 8.2 17 Norte 28 Nordeste 0 939.3 1.3 42
2019-02-05 10:00:00 6.6 17 Nordeste 30 Norte 0 938.8 0.9 44
2019-02-05 09:00:00 5.4 11 Nordeste 29 Nordeste 0 938.4 0.6 48
2019-02-05 08:00:00 4.4 11 Nordeste 21 Nordeste 0 938 0.5 54
2019-02-05 07:00:00 4.4 12 Nordeste 25 Nordeste 0 937.9 0.4 51
2019-02-05 06:00:00 3.1 9 Nordeste 21 Nordeste 0 937.8 -0.2 56
2019-02-05 05:00:00 3.6 9 Nordeste 23 Nordeste 0 937.5 -0.7 53
2019-02-05 04:00:00 4.4 10 Nordeste 21 Nordeste 0 937.5 -0.9 51
2019-02-05 03:00:00 5.7 10 Nordeste 18 Norte 0 938 -0.5 44
2019-02-05 02:00:00 5.4 4 Nordeste 14 Nordeste 0 938.2 -0.1 48
2019-02-05 01:00:00 5.5 8 Nordeste 14 Nordeste 0 938.4 0.1 46
2019-02-05 00:00:00 6.4 5 Este 17 Nordeste 0 938.5 0.3 45
2019-02-04 23:00:00 7.3 6 Norte 17 Norte 0 938.3 0.5 37
2019-02-04 22:00:00 6.8 10 Norte 16 Norte 0 938.3 0.8 39
2019-02-04 21:00:00 7.3 9 Nordeste 16 Nordeste 0 938.2 1 35
2019-02-04 20:00:00 6.6 5 Norte 12 Nordeste 0 937.8 0.4 38
2019-02-04 19:00:00 8 7 Nordeste 15 Norte 0 937.5 0.2 40
2019-02-04 18:00:00 10.4 8 Norte 21 Norte 0 937.2 -0.2 29
2019-02-04 17:00:00 11.4 10 Norte 22 Norte 0 937.4 -0.6 31
2019-02-04 16:00:00 11.4 9 Norte 18 Nordeste 0 937.3 -1.2 30
2019-02-04 15:00:00 10.5 5 Noroeste 18 Norte 0 937.4 -1.8 36
2019-02-04 14:00:00 9.1 4 Noroeste 13 Nordeste 0 938 -1.1 41
2019-02-04 13:00:00 7.1 5 Nordeste 17 Norte 0 938.5 -0.3 43
2019-02-04 12:00:00 5.1 8 Norte 17 Norte 0 939.2 0.9 52
2019-02-04 11:00:00 3 6 Nordeste 19 Norte 0 939.1 0.8 58
2019-02-04 10:00:00 0.8 8 Nordeste 23 Nordeste 0 938.8 0.6 65
2019-02-04 09:00:00 -1.6 7 Nordeste 14 Nordeste 0 938.3 0.2 75
2019-02-04 08:00:00 -1.7 6 Nordeste 10 Norte 0 938.3 0.2 75
2019-02-04 07:00:00 -1.6 4 Norte 6 Nordeste 0 938.2 -0.7 72
2019-02-04 06:00:00 -1.4 3 Sudeste 14 Este 0 938.1 -0.6 74
2019-02-04 05:00:00 -1.1 5 Este 16 Nordeste 0 938.1 -0.4 72
2019-02-04 04:00:00 -1.4 7 Nordeste 13 Nordeste 0 938.9 0.5 73
2019-02-04 03:00:00 -1.2 6 Norte 11 Norte 0 938.7 0.3 71
2019-02-04 02:00:00 -1 6 Norte 14 Nordeste 0 938.5 0.6 68
2019-02-04 01:00:00 0.2 10 Norte 17 Norte 0 938.4 1.2 62
2019-02-04 00:00:00 1.7 6 Norte 15 Noroeste 0 938.4 1.6 54
2019-02-03 23:00:00 1.4 4 Norte 9 Nordeste 0 937.9 1.6 53
2019-02-03 22:00:00 1.9 3 Norte 10 Norte 0 937.2 1.4 54
2019-02-03 21:00:00 2.3 2 Sudoeste 7 Norte 0 936.8 1.5 53
2019-02-03 20:00:00 3.2 4 Norte 12 Norte 0 936.3 1.3 52
2019-02-03 19:00:00 4.3 5 Noroeste 26 Norte 0 935.8 1 42
2019-02-03 18:00:00 6.2 9 Norte 34 Noroeste 0 935.3 0.8 40
2019-02-03 17:00:00 6.8 19 Norte 45 Norte 0 935 0.1 35
2019-02-03 16:00:00 6.9 22 Norte 42 Norte 0 934.8 -0.4 34
2019-02-03 15:00:00 6.6 19 Norte 42 Norte 0 934.5 -1 37
2019-02-03 14:00:00 5.9 19 Noroeste 40 Nordeste 0 934.9 -0.6 35
2019-02-03 13:00:00 5.2 13 Norte 27 Norte 0 935.2 0.1 40
2019-02-03 12:00:00 4.1 12 Norte 31 Nordeste 0 935.5 1 49
2019-02-03 11:00:00 3 19 Norte 37 Norte 0 935.5 2.1 52
2019-02-03 10:00:00 1.8 15 Norte 34 Norte 0 935.1 2.4 58
2019-02-03 09:00:00 0.3 6 Norte 18 Norte 0 934.5 2.2 64
2019-02-03 08:00:00 -0.5 4 Noroeste 10 Oeste 0 933.4 1.6 67
2019-02-03 07:00:00 -0.2 3 Noroeste 16 Norte 0 932.7 1.3 67
2019-02-03 06:00:00 -0.5 3 Sur 13 Oeste 0 932.3 1.2 71
2019-02-03 05:00:00 0.4 4 Sudoeste 16 Norte 0 931.8 1.3 66
2019-02-03 04:00:00 0.8 6 Norte 23 Norte 0 931.4 1.1 65
2019-02-03 03:00:00 0.9 16 Noroeste 26 Noroeste 0 931.1 1.3 66
2019-02-03 02:00:00 1.6 10 Oeste 17 Oeste 0 930.5 1 61
2019-02-03 01:00:00 2.2 8 Oeste 23 Oeste 0 930.3 1.3 54
2019-02-03 00:00:00 2.7 13 Oeste 28 Noroeste 0 929.8 1.8 51
2019-02-02 23:00:00 3.2 12 Noroeste 37 Noroeste 0 929.5 2 46
2019-02-02 22:00:00 3.6 19 Noroeste 46 Norte 0 929 2.5 47
2019-02-02 21:00:00 4.5 19 Noroeste 40 Noroeste 0 928 2.5 41
2019-02-02 20:00:00 4.8 17 Noroeste 37 Noroeste 0 927.5 2.8 44
2019-02-02 19:00:00 4.9 13 Noroeste 30 Norte 0 926.5 2.6 54
2019-02-02 18:00:00 6.4 17 Noroeste 41 Noroeste 0 925.5 2 50
2019-02-02 17:00:00 6.4 19 Noroeste 47 Noroeste 0 924.7 1.6 50
2019-02-02 16:00:00 7 18 Noroeste 43 Norte 0 923.9 1.2 46
2019-02-02 15:00:00 6.8 22 Noroeste 44 Noroeste 0 923.5 1.1 47
2019-02-02 14:00:00 6.4 19 Noroeste 41 Noroeste 0 923.1 1.5 46
2019-02-02 13:00:00 5.6 17 Noroeste 38 Noroeste 0 922.7 1.9 55
2019-02-02 12:00:00 4.4 16 Noroeste 33 Noroeste 0 922.4 3 65
2019-02-02 11:00:00 3.1 14 Oeste 33 Noroeste 0 921.6 3.1 71
2019-02-02 10:00:00 2.9 16 Oeste 48 Oeste 0 920.8 3.4 72
2019-02-02 09:00:00 2.6 19 Oeste 40 Oeste 0 919.4 2.3 73
2019-02-02 08:00:00 2.9 12 Oeste 37 Oeste 0 918.5 1.7 75
2019-02-02 07:00:00 3 18 Oeste 43 Oeste 0 917.4 0.8 77
2019-02-02 06:00:00 2.9 10 Sudoeste 31 Oeste 0 917.1 0.6 85
2019-02-02 05:00:00 3.3 11 Oeste 25 Oeste 0 916.8 1 82
2019-02-02 04:00:00 3.3 10 Oeste 29 Oeste 0 916.6 1.2 81
2019-02-02 03:00:00 3.4 13 Oeste 48 Oeste 0 916.5 2 77
2019-02-02 02:00:00 3.5 21 Oeste 49 Oeste 0 915.8 1.8 76
2019-02-02 01:00:00 3.2 16 Oeste 37 Oeste 0 915.4 2 83
2019-02-02 00:00:00 3 10 Sudoeste 41 Sudoeste 0 914.5 1.6 81
2019-02-01 23:00:00 3.4 17 Oeste 46 Noroeste 0 914 1.5 82
2019-02-01 22:00:00 3.7 16 Sudoeste 39 Sudoeste 0 913.4 2.5 85
2019-02-01 21:00:00 3.7 13 Sudoeste 40 Oeste 0 912.9 2.5 85
2019-02-01 20:00:00 3.3 23 Oeste 45 Oeste 0.2 912.5 2.8 84
2019-02-01 19:00:00 4.2 25 Noroeste 57 Oeste 0.6 910.9 0.7 85
2019-02-01 18:00:00 5.3 23 Oeste 61 Sudoeste 2.2 910.4 -0.4 84
2019-02-01 17:00:00 7.5 24 Sudoeste 55 Sudoeste 0 909.7 -1.9 73
2019-02-01 16:00:00 7.8 19 Sudoeste 44 Sudoeste 0.2 910.2 -2 73
2019-02-01 15:00:00 7.9 22 Sudoeste 56 Sudoeste 0 910.8 -1.5 69
2019-02-01 14:00:00 7.2 16 Oeste 46 Noroeste 0 911.6 -0.6 72
2019-02-01 13:00:00 7.5 21 Oeste 49 Oeste 0 912.2 0.9 68
2019-02-01 12:00:00 6.9 14 Oeste 45 Sudoeste 0.2 912.3 1.9 84
2019-02-01 11:00:00 6.8 16 Sudoeste 40 Oeste 0 912.2 2.4 88
2019-02-01 10:00:00 5.9 22 Oeste 48 Oeste 0 911.3 2.1 89
2019-02-01 09:00:00 6.9 14 Noroeste 41 Noroeste 1.8 910.4 0.4 91
2019-02-01 08:00:00 8.5 17 Sudoeste 44 Sudoeste 2 909.8 -0.7 91
2019-02-01 07:00:00 8.5 17 Oeste 43 Oeste 4.4 909.2 -2.5 91
2019-02-01 06:00:00 9.6 15 Oeste 45 Sudoeste 9.2 910 -3 92
2019-02-01 05:00:00 9.2 16 Sudoeste 39 Sudoeste 10 910.5 -3 92
2019-02-01 04:00:00 9.1 17 Sudoeste 46 Sur 4.6 911.7 -2.8 92
2019-02-01 03:00:00 8.6 21 Sudoeste 62 Sudoeste 3.4 913 -2.4 91
2019-02-01 02:00:00 9 19 Sudoeste 47 Sur 1.6 913.5 -2.8 92
2019-02-01 01:00:00 8.8 18 Sur 53 Sur 2 914.5 -2.6 91
2019-02-01 00:00:00 8.8 24 Sudoeste 58 Sudoeste 2.6 915.4 -2.1 91
2019-01-31 23:00:00 8.9 20 Sur 53 Sudoeste 1.4 916.3 -1.4 91
2019-01-31 22:00:00 9 14 Sur 42 Sudoeste 0.8 917.1 0 91
2019-01-31 21:00:00 9 18 Sudoeste 48 Sur 1.4 917.5 -1.2 91
2019-01-31 20:00:00 9.1 19 Sudoeste 48 Sur 2.2 917.7 -1.3 91
2019-01-31 19:00:00 9.2 18 Sur 45 Sudoeste 0.4 917.1 -1.7 91
2019-01-31 18:00:00 9.1 14 Sudoeste 40 Sudoeste 0.4 918.7 -0.3 91
2019-01-31 17:00:00 9.2 15 Sudoeste 39 Sudoeste 0.6 919 -0.3 90
2019-01-31 16:00:00 9.4 18 Sudoeste 50 Sudoeste 0.8 918.8 -1 90
2019-01-31 15:00:00 9.7 15 Sudoeste 39 Sudoeste 0 919 -1.8 91
2019-01-31 14:00:00 9.8 19 Sudoeste 53 Sudoeste 0.8 919.3 -1.6 91
2019-01-31 13:00:00 9.8 18 Sudoeste 40 Sudoeste 0.6 919.8 -0.3 91
2019-01-31 12:00:00 9.5 15 Oeste 30 Oeste 0.2 920.8 1.1 91
2019-01-31 11:00:00 9.1 14 Sudoeste 37 Sudoeste 0.4 920.9 1.4 91
2019-01-31 10:00:00 8.7 11 Sudoeste 35 Sudoeste 0.6 920.1 0.6 91
2019-01-31 09:00:00 8.4 12 Sudoeste 34 Sudoeste 0.4 919.7 -0.1 91
2019-01-31 08:00:00 8.3 12 Sudoeste 32 Sudoeste 0.2 919.5 -0.5 91
2019-01-31 07:00:00 8.2 12 Sudoeste 33 Sudoeste 0.2 919.5 -1.2 91
2019-01-31 06:00:00 8 18 Sudoeste 37 Sudoeste 0 919.8 -1.4 91
2019-01-31 05:00:00 7.9 13 Sudoeste 28 Oeste 0.2 920 -1.4 91
2019-01-31 04:00:00 7.7 14 Sudoeste 35 Sudoeste 1 920.7 -1.3 91
2019-01-31 03:00:00 7.4 12 Sudoeste 34 Sudoeste 1.8 921.2 -1.1 91
2019-01-31 02:00:00 7 12 Sudoeste 40 Oeste 0.2 921.4 -1.4 90
2019-01-31 01:00:00 6.7 15 Sudoeste 36 Sudoeste 0.4 922 -1.1 90
2019-01-31 00:00:00 6.6 14 Sudoeste 35 Sudoeste 1.2 922.3 -1.4 89
2019-01-30 23:00:00 6.8 14 Sudoeste 30 Sudoeste 0.6 922.8 -1.1 88
2019-01-30 22:00:00 6.8 8 Sudoeste 19 Sudoeste 1.4 923.1 -0.7 87
2019-01-30 21:00:00 6.8 10 Sudoeste 23 Sudoeste 0.4 923.7 -0.2 83
2019-01-30 20:00:00 7.3 11 Sudoeste 33 Sudoeste 0 923.9 -0.2 75
2019-01-30 19:00:00 7.8 13 Sudoeste 36 Sudoeste 0 923.8 -0.3 67
2019-01-30 18:00:00 8.5 14 Sudoeste 32 Oeste 0 923.9 -0.5 58
2019-01-30 17:00:00 9.4 12 Sudoeste 34 Sudoeste 0 924.1 -0.7 51
2019-01-30 16:00:00 9.8 15 Sur 33 Sur 0 924.1 -1.3 55
2019-01-30 15:00:00 9.6 12 Sudoeste 26 Sudoeste 0 924.4 -1.6 54
2019-01-30 14:00:00 8.7 18 Noroeste 32 Oeste 0 924.8 -1.2 49
2019-01-30 13:00:00 7.9 14 Oeste 33 Noroeste 0 925.4 -0.1 57
2019-01-30 12:00:00 7 16 Oeste 37 Oeste 0 926 0.7 63
2019-01-30 11:00:00 5.9 17 Oeste 33 Oeste 0.2 926 1.4 67
2019-01-30 10:00:00 5 17 Oeste 37 Oeste 0 925.5 1.1 81
2019-01-30 09:00:00 5.1 7 Oeste 20 Oeste 0 925.3 0.9 85
2019-01-30 08:00:00 5.4 8 Oeste 18 Sudoeste 0 924.6 -0.3 87
2019-01-30 07:00:00 5.8 6 Sur 18 Sur 0 924.4 -0.6 87
2019-01-30 06:00:00 6.1 8 Sudoeste 22 Sudoeste 0 924.4 -0.6 87
2019-01-30 05:00:00 6.4 11 Sudoeste 22 Sudoeste 0 924.9 -0.5 88
2019-01-30 04:00:00 6.7 10 Sudoeste 20 Sudoeste 0 925 -1.2 89
2019-01-30 03:00:00 6.9 8 Oeste 22 Sudoeste 0 925 -1.7 89
2019-01-30 02:00:00 7 10 Sudoeste 25 Sudoeste 0 925.4 -1.5 89
2019-01-30 01:00:00 7 11 Sudoeste 26 Sudoeste 0 926.2 -0.9 88
2019-01-30 00:00:00 7.1 8 Sudoeste 20 Sur 0.6 926.7 -0.2 88
2019-01-29 23:00:00 7.2 10 Sur 19 Sur 0 926.9 0.1 87
2019-01-29 22:00:00 7.4 7 Sur 19 Sur 0 927.1 0.4 85
2019-01-29 21:00:00 7.4 9 Sur 21 Sur 0 926.9 0 84
2019-01-29 20:00:00 7.3 9 Sudoeste 22 Sudoeste 0 926.8 0 83
2019-01-29 19:00:00 7.4 10 Sur 21 Sur 0 926.7 -0.5 82
2019-01-29 18:00:00 7.5 5 Sur 17 Oeste 0 926.9 -0.6 81
2019-01-29 17:00:00 7.4 9 Sudoeste 30 Sudoeste 0 926.8 -0.8 80
2019-01-29 16:00:00 7.5 12 Sudoeste 32 Sudoeste 0 927.2 -1.5 79
2019-01-29 15:00:00 8.4 12 Sudoeste 31 Sudoeste 0 927.5 -2 75
2019-01-29 14:00:00 8.8 15 Sudoeste 35 Sudoeste 0 927.6 -1.9 72
2019-01-29 13:00:00 7.6 14 Sur 27 Sur 0 928.7 -0.6 80
2019-01-29 12:00:00 7.2 9 Sudoeste 30 Sudoeste 0 929.5 0.2 81
2019-01-29 11:00:00 6.2 12 Sudoeste 27 Sudoeste 0 929.5 0.2 83
2019-01-29 10:00:00 5.8 12 Sudoeste 26 Sudoeste 0 929.3 0.2 87
2019-01-29 09:00:00 5.3 10 Sudoeste 19 Oeste 0 929.3 0.2 88
2019-01-29 08:00:00 5.2 9 Sudoeste 19 Sudoeste 0 929.3 -0.1 88
2019-01-29 07:00:00 5.2 6 Sudoeste 15 Sudoeste 0 929.1 -0.5 87
2019-01-29 06:00:00 5 6 Sur 12 Sur 0 929.1 -0.4 87
2019-01-29 05:00:00 4.9 7 Sur 13 Sur 0 929.4 0.2 85
2019-01-29 04:00:00 5.2 5 Sudoeste 14 Sudoeste 0 929.6 -0.2 86
2019-01-29 03:00:00 5 7 Sudoeste 12 Sudoeste 0 929.5 -0.2 85
2019-01-29 02:00:00 4.8 8 Sur 14 Sur 0 929.2 -0.5 82
2019-01-29 01:00:00 5.8 8 Oeste 20 Sudoeste 0 929.8 0.1 80
2019-01-29 00:00:00 6.4 6 Sur 24 Noroeste 0 929.7 0.1 76
2019-01-28 23:00:00 7.3 17 Noroeste 30 Noroeste 0 929.7 -0.2 74
2019-01-28 22:00:00 7.8 13 Oeste 21 Oeste 0 929.7 0.1 71
2019-01-28 21:00:00 8.5 12 Noroeste 31 Noroeste 0 929.6 0.6 67
2019-01-28 20:00:00 9.2 16 Oeste 30 Noroeste 0 929.9 1.1 66
2019-01-28 19:00:00 9 10 Oeste 30 Oeste 0 929.6 0.9 65
2019-01-28 18:00:00 8.8 14 Oeste 33 Oeste 0 929 -0.1 63
2019-01-28 17:00:00 9.3 17 Noroeste 32 Noroeste 0 928.8 -0.8 58
2019-01-28 16:00:00 9.3 12 Sur 27 Sur 0 928.7 -1.4 63
2019-01-28 15:00:00 8.3 10 Sudoeste 30 Sudoeste 0 929.1 -2 63
2019-01-28 14:00:00 7.5 8 Sur 19 Sur 0 929.6 -0.8 62
2019-01-28 13:00:00 6.3 9 Sur 19 Sur 0 930.1 -0.7 68
2019-01-28 12:00:00 4.2 11 Sudoeste 21 Sudoeste 0 931.1 0.1 76
2019-01-28 11:00:00 2.9 9 Sur 17 Sur 0 930.4 -0.2 85
2019-01-28 10:00:00 1.6 5 Sur 10 Sur 0 930.8 0.8 86
2019-01-28 09:00:00 0.6 3 Sudoeste 9 Sudeste 0 931 1.3 83
2019-01-28 08:00:00 0.9 3 Sudoeste 14 Sudoeste 0 930.6 1 81
2019-01-28 07:00:00 1.2 9 Sudoeste 15 Oeste 0 930 0.4 81
2019-01-28 06:00:00 1.8 6 Sudoeste 17 Oeste 0 929.7 -0.1 81
2019-01-28 05:00:00 2 9 Sudoeste 14 Sudoeste 0 929.6 -0.2 81
2019-01-28 04:00:00 2.7 5 Sur 10 Sur 0 929.6 0 75
2019-01-28 03:00:00 3.3 5 Sudeste 6 Sudeste 0 929.8 0 73
2019-01-28 02:00:00 3.9 3 Nordeste 9 Sur 0 929.8 0.4 69
2019-01-28 01:00:00 4.5 4 Oeste 16 Noroeste 0 929.6 0.2 67
2019-01-28 00:00:00 5.2 10 Norte 31 Noroeste 0 929.8 0.6 65
2019-01-27 23:00:00 6 17 Noroeste 30 Oeste 0 929.4 0.7 62
2019-01-27 22:00:00 6.2 17 Oeste 31 Oeste 0 929.4 0.8 64
2019-01-27 21:00:00 6.4 19 Oeste 31 Oeste 0 929.2 0.9 66
2019-01-27 20:00:00 6.6 13 Oeste 30 Oeste 0 928.7 0.9 69
2019-01-27 19:00:00 7.2 13 Oeste 22 Oeste 0 928.6 1.4 68
2019-01-27 18:00:00 8.9 11 Oeste 23 Oeste 0 928.3 1.5 61
2019-01-27 17:00:00 9.6 15 Noroeste 28 Noroeste 0 927.8 0.9 56
2019-01-27 16:00:00 10.8 10 Noroeste 28 Noroeste 0 927.2 -0.5 56
2019-01-27 15:00:00 9.9 16 Oeste 37 Noroeste 0 926.8 -1.3 56
2019-01-27 14:00:00 8.6 10 Sudoeste 27 Sudoeste 0 926.9 -0.7 73
2019-01-27 13:00:00 8.2 14 Sudoeste 34 Sudoeste 0 927.7 0.4 74
2019-01-27 12:00:00 6.6 12 Oeste 26 Sudoeste 0 928.1 1.1 82
2019-01-27 11:00:00 5.8 14 Oeste 29 Sudoeste 0 927.6 0.6 88
2019-01-27 10:00:00 5.5 15 Sudoeste 33 Sudoeste 0 927.3 0.2 89
2019-01-27 09:00:00 5.1 6 Sur 12 Sur 0 927 -0.5 89
2019-01-27 08:00:00 4.1 5 Norte 15 Oeste 0 927 -0.6 87
2019-01-27 07:00:00 4.2 6 Sudoeste 19 Sudoeste 0 927.1 -0.7 86
2019-01-27 06:00:00 3.4 6 Sur 12 Sudoeste 0 927.5 -0.7 83
2019-01-27 05:00:00 3.8 5 Sur 15 Sur 0 927.6 -1.1 78
2019-01-27 04:00:00 4.8 11 Sur 16 Sur 0 927.8 -1.2 74
2019-01-27 03:00:00 5.8 10 Sur 13 Sur 0 928.2 -1 69
2019-01-27 02:00:00 6.2 5 Sudoeste 11 Sur 0 928.7 -0.8 68
2019-01-27 01:00:00 7 4 Sur 13 Sudoeste 0 929 -0.6 65
2019-01-27 00:00:00 8 7 Sudoeste 11 Sudoeste 0 929.2 -0.4 62
2019-01-26 23:00:00 9 8 Sudoeste 14 Sudoeste 0 929.5 -0.2 57
2019-01-26 22:00:00 9.1 8 Sudoeste 12 Sudoeste 0 929.6 0.1 56
2019-01-26 21:00:00 9.1 5 Sudoeste 9 Sudoeste 0 929.6 0.1 55
2019-01-26 20:00:00 10.2 5 Sudoeste 14 Sudoeste 0 929.7 0.1 54
2019-01-26 19:00:00 11.3 8 Sudoeste 14 Sudoeste 0 929.5 -0.3 52
2019-01-26 18:00:00 13.6 8 Sudoeste 17 Sur 0 929.5 -0.7 50
2019-01-26 17:00:00 14.7 10 Sur 18 Sur 0 929.6 -1.4 49
2019-01-26 16:00:00 14.7 5 Sudoeste 19 Sudoeste 0 929.8 -1.7 45
2019-01-26 15:00:00 14.3 4 Nordeste 16 Nordeste 0 930.2 -1.9 33
2019-01-26 14:00:00 13.6 5 Nordeste 25 Nordeste 0 931 -0.8 37
2019-01-26 13:00:00 12 10 Nordeste 26 Norte 0 931.5 0.2 41
2019-01-26 12:00:00 10.2 10 Nordeste 25 Nordeste 0 932.1 1 49
2019-01-26 11:00:00 8.5 11 Nordeste 28 Nordeste 0 931.8 1.4 55
2019-01-26 10:00:00 6.6 12 Nordeste 27 Nordeste 0 931.3 1 63
2019-01-26 09:00:00 5.9 10 Nordeste 34 Nordeste 0 931.1 0.7 64
2019-01-26 08:00:00 5.6 6 Nordeste 29 Norte 0 930.4 0 65
2019-01-26 07:00:00 5.2 10 Nordeste 24 Nordeste 0 930.3 -0.4 68
2019-01-26 06:00:00 5.2 6 Este 18 Este 0 930.4 -0.4 68
2019-01-26 05:00:00 5.8 6 Este 28 Norte 0 930.4 -0.4 65
2019-01-26 04:00:00 6 9 Nordeste 24 Nordeste 0 930.7 -0.5 65
2019-01-26 03:00:00 6.2 15 Nordeste 27 Nordeste 0 930.8 -0.2 65
2019-01-26 02:00:00 6.3 5 Oeste 17 Noroeste 0 930.8 -0.1 63
2019-01-26 01:00:00 6.9 6 Nordeste 19 Nordeste 0 931.2 0.6 60
2019-01-26 00:00:00 7.1 5 Este 12 Nordeste 0 931 0.8 61
2019-01-25 23:00:00 7.1 3 Sur 8 Sudeste 0 930.9 1 63
2019-01-25 22:00:00 7.7 3 Norte 13 Norte 0 930.6 1.2 60
2019-01-25 21:00:00 9 10 Norte 17 Norte 0 930.2 1.1 55
2019-01-25 20:00:00 9 11 Norte 14 Norte 0 929.9 0.9 58
2019-01-25 19:00:00 11 10 Norte 21 Noroeste 0 929.4 0.4 50
2019-01-25 18:00:00 12.7 10 Noroeste 22 Noroeste 0 929.1 0 48
2019-01-25 17:00:00 13.7 13 Noroeste 37 Nordeste 0 929 -0.4 46
2019-01-25 16:00:00 13.5 13 Norte 35 Norte 0 929 -0.8 45
2019-01-25 15:00:00 13.2 9 Norte 32 Norte 0 929.1 -1.1 50
2019-01-25 14:00:00 12.4 14 Norte 33 Nordeste 0 929.4 -0.5 52
2019-01-25 13:00:00 11.6 10 Norte 33 Norte 0 929.8 0.3 56
2019-01-25 12:00:00 10.3 11 Nordeste 31 Norte 0 930.2 1.3 61
2019-01-25 11:00:00 8.6 4 Nordeste 24 Nordeste 0 929.9 1.6 72
2019-01-25 10:00:00 7.6 15 Nordeste 30 Norte 0 929.5 1.7 73
2019-01-25 09:00:00 6.2 20 Norte 28 Nordeste 0 928.9 1.3 79
2019-01-25 08:00:00 6.5 19 Norte 30 Norte 0 928.3 0.9 79
2019-01-25 07:00:00 7 14 Norte 26 Norte 0 927.8 0.5 78
2019-01-25 06:00:00 7.1 12 Norte 27 Norte 0 927.6 0.1 79
2019-01-25 05:00:00 6.7 10 Norte 18 Noroeste 0 927.4 -0.1 84
2019-01-25 04:00:00 7 7 Nordeste 11 Norte 0 927.3 0.4 83
2019-01-25 03:00:00 7 7 Nordeste 10 Nordeste 0 927.5 0.8 85
2019-01-25 02:00:00 7.4 5 Norte 8 Sur 0 927.5 0.9 84
2019-01-25 01:00:00 8.1 3 Oeste 9 Oeste 0 926.9 0.7 83
2019-01-25 00:00:00 7.8 5 Oeste 11 Oeste 0 926.7 1 86
2019-01-24 23:00:00 7.8 3 Sudeste 13 Oeste 0 926.6 1.3 86
2019-01-24 22:00:00 8.2 9 Oeste 19 Oeste 0 926.2 1.2 86
2019-01-24 21:00:00 7.8 8 Oeste 15 Oeste 0 925.7 1.3 86
2019-01-24 20:00:00 8 9 Sudoeste 15 Sudoeste 0 925.3 1.3 84
2019-01-24 19:00:00 8.6 8 Sudoeste 23 Sudoeste 0 925 1.3 82
2019-01-24 18:00:00 9.6 10 Sudoeste 21 Sudoeste 0 924.4 0.8 79
2019-01-24 17:00:00 10.2 8 Sudoeste 23 Sudoeste 0 924 0.5 77
2019-01-24 16:00:00 9.8 13 Sudoeste 28 Sudoeste 0 923.7 0.3 77
2019-01-24 15:00:00 10 11 Sur 19 Sur 0 923.6 -0.2 77
2019-01-24 14:00:00 9.8 8 Sur 16 Sur 0 923.5 0.1 79
2019-01-24 13:00:00 9.5 8 Sur 17 Sur 0 923.4 0.4 84
2019-01-24 12:00:00 7.8 4 Sur 14 Sur 0 923.8 1.1 88
2019-01-24 11:00:00 7.1 4 Sudoeste 14 Sudeste 0 923.4 1 89
2019-01-24 10:00:00 6 0 Calma 9 Sudoeste 0 923 1.2 88
2019-01-24 09:00:00 5.1 4 Este 8 Nordeste 0 922.7 1.2 88
2019-01-24 08:00:00 5.4 0 Calma 5 Sudeste 0 922.4 0.9 87
2019-01-24 07:00:00 5.7 2 Sudeste 9 Sudeste 0 921.8 0.1 86
2019-01-24 06:00:00 5.8 3 Sur 13 Sudoeste 0 921.5 -0.5 84
2019-01-24 05:00:00 6.7 6 Sur 18 Sudoeste 0 921.5 -0.9 82
2019-01-24 04:00:00 7.3 9 Sudoeste 21 Sudoeste 0 921.7 -0.6 81
2019-01-24 03:00:00 6.9 8 Sudoeste 37 Oeste 0 922 0 80
2019-01-24 02:00:00 7.5 18 Oeste 41 Oeste 0 922.4 0.5 78
2019-01-24 01:00:00 7.2 12 Oeste 34 Oeste 0 922.3 0.2 77
2019-01-24 00:00:00 7.4 14 Oeste 33 Oeste 0 922 -0.5 75
2019-01-23 23:00:00 8.2 21 Oeste 39 Oeste 0 921.9 -0.3 72
2019-01-23 22:00:00 8.4 15 Oeste 40 Oeste 0 922.1 -0.1 71
2019-01-23 21:00:00 8.6 16 Oeste 37 Oeste 0 922.5 0.5 72
2019-01-23 20:00:00 9 19 Oeste 41 Oeste 0 922.2 0.3 71
2019-01-23 19:00:00 9.1 18 Oeste 36 Noroeste 0 922.2 -0.1 71
2019-01-23 18:00:00 9.4 15 Oeste 38 Oeste 0 922 -0.3 69
2019-01-23 17:00:00 9.9 18 Oeste 40 Oeste 0 921.9 -0.9 65
2019-01-23 16:00:00 9.8 18 Oeste 48 Oeste 0 922.3 -1 63
2019-01-23 15:00:00 10.1 15 Sudoeste 35 Oeste 0 922.3 -1.6 64
2019-01-23 14:00:00 9.9 15 Oeste 35 Oeste 0 922.8 -1.1 65
2019-01-23 13:00:00 9 16 Oeste 39 Oeste 0 923.3 -0.5 70
2019-01-23 12:00:00 7.4 15 Oeste 37 Oeste 0 923.9 -0.2 75
2019-01-23 11:00:00 6.4 22 Oeste 40 Oeste 0 923.9 -0.2 77
2019-01-23 10:00:00 5.7 15 Oeste 37 Oeste 0 923.8 -0.3 79
2019-01-23 09:00:00 5 13 Oeste 38 Noroeste 0 924.1 0.4 79
2019-01-23 08:00:00 4.8 18 Noroeste 37 Noroeste 0 924.1 0.2 77
2019-01-23 07:00:00 4.5 9 Oeste 41 Oeste 0 924.1 -0.1 77
2019-01-23 06:00:00 4.8 21 Oeste 36 Oeste 0 923.7 -0.5 76
2019-01-23 05:00:00 5.8 10 Oeste 24 Oeste 0 923.9 -1 77
2019-01-23 04:00:00 6 7 Sudoeste 32 Oeste 0 924.2 -0.8 77
2019-01-23 03:00:00 6.4 15 Oeste 33 Oeste 0 924.2 -1 78
2019-01-23 02:00:00 5.7 12 Oeste 25 Oeste 0 924.9 -0.2 83
2019-01-23 01:00:00 5.7 12 Oeste 25 Oeste 0 925 -0.2 81
2019-01-23 00:00:00 6.5 18 Oeste 37 Noroeste 0 925.2 -0.5 79
2019-01-22 23:00:00 5.1 10 Sudoeste 24 Sudoeste 0 925.1 -1 80
2019-01-22 22:00:00 4.7 10 Sudoeste 20 Sur 0 925.2 -1.1 80
2019-01-22 21:00:00 4.6 9 Sur 23 Sudoeste 0 925.7 -0.7 78
2019-01-22 20:00:00 4.6 9 Sur 25 Sur 0 926.1 -0.5 75
2019-01-22 19:00:00 4.7 7 Sudoeste 18 Sudoeste 0 926.3 -0.5 72
2019-01-22 18:00:00 5.4 5 Oeste 17 Sudoeste 0 926.4 -0.7 70
2019-01-22 17:00:00 6.6 9 Sudoeste 25 Sudoeste 0 926.6 -1.4 68
2019-01-22 16:00:00 6.1 11 Sudoeste 24 Sudoeste 0 926.8 -2.1 69
2019-01-22 15:00:00 5.7 9 Sur 21 Sur 0 927.1 -2.3 71
2019-01-22 14:00:00 5.3 9 Sur 24 Sur 0 928 -1.7 67
2019-01-22 13:00:00 5.4 12 Sur 27 Sudoeste 0 928.9 -0.7 62
2019-01-22 12:00:00 4.7 10 Sur 21 Sur 0 929.4 -0.4 61
2019-01-22 11:00:00 3.5 9 Sudoeste 18 Oeste 0 929.7 -0.1 60
2019-01-22 10:00:00 2.3 7 Sudoeste 15 Sudoeste 0 929.6 -0.5 62
2019-01-22 09:00:00 1 9 Sudoeste 14 Sudoeste 0 929.8 -0.3 68
2019-01-22 08:00:00 -0.4 4 Noroeste 7 Sudoeste 0 929.8 -0.5 71
2019-01-22 07:00:00 -0.1 3 Sudoeste 11 Sur 0 930.1 -0.8 70
2019-01-22 06:00:00 0.8 3 Noroeste 9 Norte 0 930.1 -1.1 63
2019-01-22 05:00:00 1.1 6 Norte 10 Norte 0 930.3 -1.1 64
2019-01-22 04:00:00 1.4 8 Norte 22 Norte 0 930.9 -1 64
2019-01-22 03:00:00 1.4 8 Noroeste 17 Noroeste 0 931.2 -1 65
2019-01-22 02:00:00 0.9 2 Este 19 Norte 0 931.4 -0.3 70
2019-01-22 01:00:00 2.5 15 Norte 24 Norte 0 931.9 0.5 63
2019-01-22 00:00:00 2.5 13 Norte 21 Norte 0 932.2 0.9 65
2019-01-21 23:00:00 3.2 9 Norte 16 Norte 0 931.7 1 63
2019-01-21 22:00:00 3.7 10 Norte 18 Norte 0 931.4 0.9 61
2019-01-21 21:00:00 4.1 3 Noroeste 6 Nordeste 0 931.3 0.9 57
2019-01-21 20:00:00 4.2 0 Calma 8 Norte 0 930.7 0.6 59
2019-01-21 19:00:00 5.1 4 Noroeste 21 Norte 0 930.5 0.5 56
2019-01-21 18:00:00 6.9 14 Norte 30 Norte 0 930.4 0.3 49
2019-01-21 17:00:00 7.7 14 Norte 43 Norte 0 930.1 -0.3 46
2019-01-21 16:00:00 7.9 22 Norte 41 Norte 0 930 -1 49
2019-01-21 15:00:00 7.2 20 Norte 36 Nordeste 0 930.1 -1.4 51
2019-01-21 14:00:00 7.2 18 Norte 41 Norte 0 930.4 -0.8 57
2019-01-21 13:00:00 6.8 16 Norte 42 Nordeste 0 931 0.2 57
2019-01-21 12:00:00 6.2 15 Nordeste 34 Norte 0 931.5 1.2 60
2019-01-21 11:00:00 4.5 5 Nordeste 9 Nordeste 0 931.2 1.3 69
2019-01-21 10:00:00 3.1 4 Nordeste 14 Nordeste 0 930.8 1.3 75
2019-01-21 09:00:00 1.8 4 Norte 13 Noroeste 0 930.3 1.1 78
2019-01-21 08:00:00 2.2 5 Oeste 17 Oeste 0 929.9 0.9 77
2019-01-21 07:00:00 1.3 5 Norte 9 Nordeste 0 929.5 0.3 80
2019-01-21 06:00:00 1.5 4 Sudeste 8 Sur 0 929.2 0.1 79
2019-01-21 05:00:00 1.8 3 Oeste 8 Sur 0 929 -0.1 76
2019-01-21 04:00:00 2.2 3 Sudeste 7 Sudeste 0 929.2 0.2 75
2019-01-21 03:00:00 2.6 2 Sudeste 21 Noroeste 0 929.1 0.5 73
2019-01-21 02:00:00 3.2 8 Oeste 22 Sur 0 929.1 1 71
2019-01-21 01:00:00 3.9 4 Nordeste 11 Este 0 929 1.7 67
2019-01-21 00:00:00 4.3 4 Sudeste 14 Nordeste 0 928.6 1.5 67
2019-01-20 23:00:00 5.3 6 Este 43 Norte 0 928.1 1.2 63
2019-01-20 22:00:00 5.6 17 Norte 40 Noroeste 0 927.3 1 63
2019-01-20 21:00:00 6 16 Norte 39 Norte 0 927.1 1.6 62
2019-01-20 20:00:00 6.2 17 Norte 35 Norte 0 926.9 2 63
2019-01-20 19:00:00 6.4 13 Norte 30 Noroeste 0 926.3 2.2 64
2019-01-20 18:00:00 7.7 15 Norte 37 Norte 0 925.5 1.8 62
2019-01-20 17:00:00 8.4 19 Norte 42 Norte 0 924.9 1.3 61
2019-01-20 16:00:00 8.4 22 Norte 52 Norte 0 924.1 0.2 61
2019-01-20 15:00:00 8 21 Norte 42 Norte 0 923.7 0.1 64
2019-01-20 14:00:00 7.3 17 Norte 36 Norte 0 923.6 0.9 72
2019-01-20 13:00:00 6.7 19 Norte 40 Nordeste 0 923.9 2.4 76
2019-01-20 12:00:00 6.2 18 Norte 50 Norte 0 923.6 2.7 85
2019-01-20 11:00:00 6.7 18 Norte 43 Norte 0 922.7 2.3 89
2019-01-20 10:00:00 7 8 Norte 17 Sudoeste 0.2 921.5 1.4 91
2019-01-20 09:00:00 6.7 9 Sudoeste 18 Sudoeste 0.4 920.9 0.8 91
2019-01-20 08:00:00 6.5 10 Sudoeste 18 Sudoeste 1 920.4 0.2 91
2019-01-20 07:00:00 6.4 5 Sur 17 Sudoeste 0.8 920.1 -0.9 90
2019-01-20 06:00:00 6.4 7 Sudoeste 14 Sudoeste 2 920.1 -1.4 90
2019-01-20 05:00:00 6.5 6 Sudoeste 19 Sudoeste 0.6 920.2 -1.7 90
2019-01-20 04:00:00 6.4 8 Sudoeste 17 Sudoeste 0.2 921 -1.7 90
2019-01-20 03:00:00 6.2 5 Sur 17 Sudoeste 0 921.5 -1.9 90
2019-01-20 02:00:00 6 7 Sudoeste 16 Sudoeste 0.2 921.9 -1.8 90
2019-01-20 01:00:00 6 5 Sudoeste 14 Sudoeste 0.6 922.7 -1.5 90
2019-01-20 00:00:00 5.9 8 Sudoeste 25 Sur 1.6 923.4 -1.5 89
2019-01-19 23:00:00 5.7 12 Sudoeste 26 Sudoeste 0.4 923.7 -1.7 89
2019-01-19 22:00:00 5.3 8 Sur 20 Sudoeste 0.2 924.2 -1.5 88
2019-01-19 21:00:00 5.2 8 Sudoeste 15 Sudoeste 0 924.9 -0.9 86
2019-01-19 20:00:00 5.1 6 Sudoeste 18 Oeste 0 925.4 -0.6 84
2019-01-19 19:00:00 5.3 8 Sudoeste 17 Sudoeste 0 925.7 -0.8 82
2019-01-19 18:00:00 5.7 8 Sudoeste 20 Sudoeste 0 925.8 -0.9 79
2019-01-19 17:00:00 6.5 9 Sur 21 Sudoeste 0 926 -1.3 76
2019-01-19 16:00:00 7.4 10 Sur 25 Sudoeste 0 926.5 -1.5 66
2019-01-19 15:00:00 8.3 9 Sudoeste 21 Sur 0 926.7 -2.3 62
2019-01-19 14:00:00 8.4 9 Sudoeste 18 Sur 0 927.3 -1.6 60
2019-01-19 13:00:00 7.3 7 Sur 18 Sur 0 928 -0.4 64
2019-01-19 12:00:00 6.6 6 Sur 16 Sudoeste 0 929 0.6 65
2019-01-19 11:00:00 4.6 3 Noroeste 7 Oeste 0 928.9 0.8 77
2019-01-19 10:00:00 1.7 0 Calma 7 Sudeste 0 928.4 0.4 80
2019-01-19 09:00:00 1.4 2 Norte 3 Norte 0 928.4 0.5 79
2019-01-19 08:00:00 1.5 3 Norte 5 Norte 0 928.1 0.1 76
2019-01-19 07:00:00 1.8 3 Noroeste 5 Noroeste 0 928 -0.3 75
2019-01-19 06:00:00 2.3 3 Norte 4 Norte 0 927.9 -0.6 75
2019-01-19 05:00:00 3.2 0 Calma 3 Norte 0 928 -0.5 72
2019-01-19 04:00:00 4.3 2 Noroeste 5 Nordeste 0 928.3 -0.9 68
2019-01-19 03:00:00 5 2 Nordeste 10 Sudoeste 0 928.5 -0.8 67
2019-01-19 02:00:00 5.4 8 Oeste 15 Oeste 0 928.5 -0.7 64
2019-01-19 01:00:00 5.4 5 Sudoeste 11 Noroeste 0 929.2 0.5 64
2019-01-19 00:00:00 5.7 7 Oeste 13 Oeste 0 929.3 0.6 62